sensor_id;sensor_type;location;lat;lon;timestamp;pressure;altitude;pressure_sealevel;temperature;humidity
25420;BME280;13354;48.174;11.566;2023-11-19T00:01:32;95789.16;;;5.15;100.00
25420;BME280;13354;48.174;11.566;2023-11-19T00:03:58;95781.47;;;5.21;100.00
25420;BME280;13354;48.174;11.566;2023-11-19T00:06:23;95787.06;;;5.26;100.00
25420;BME280;13354;48.174;11.566;2023-11-19T00:08:49;95777.56;;;5.25;100.00
25420;BME280;13354;48.174;11.566;2023-11-19T00:11:15;95775.41;;;5.21;100.00
25420;BME280;13354;48.174;11.566;2023-11-19T00:13:41;95768.03;;;5.24;100.00
25420;BME280;13354;48.174;11.566;2023-11-19T00:16:07;95759.22;;;5.33;100.00
25420;BME280;13354;48.174;11.566;2023-11-19T00:18:32;95748.03;;;5.23;100.00
25420;BME280;13354;48.174;11.566;2023-11-19T00:20:58;95753.97;;;5.33;100.00
25420;BME280;13354;48.174;11.566;2023-11-19T00:23:23;95739.09;;;5.42;100.00
25420;BME280;13354;48.174;11.566;2023-11-19T00:25:49;95741.69;;;5.34;100.00
25420;BME280;13354;48.174;11.566;2023-11-19T00:28:14;95745.13;;;5.35;100.00
25420;BME280;13354;48.174;11.566;2023-11-19T00:30:40;95744.81;;;5.38;100.00
25420;BME280;13354;48.174;11.566;2023-11-19T00:33:08;95744.66;;;5.39;100.00
25420;BME280;13354;48.174;11.566;2023-11-19T00:35:33;95736.97;;;5.46;100.00
25420;BME280;13354;48.174;11.566;2023-11-19T00:37:59;95731.53;;;5.39;100.00
25420;BME280;13354;48.174;11.566;2023-11-19T00:40:25;95731.06;;;5.52;100.00
25420;BME280;13354;48.174;11.566;2023-11-19T00:42:51;95730.75;;;5.63;100.00
25420;BME280;13354;48.174;11.566;2023-11-19T00:45:16;95724.06;;;5.61;100.00
25420;BME280;13354;48.174;11.566;2023-11-19T00:47:42;95724.75;;;5.71;100.00
25420;BME280;13354;48.174;11.566;2023-11-19T00:50:08;95716.00;;;5.70;100.00
25420;BME280;13354;48.174;11.566;2023-11-19T00:52:38;95711.41;;;5.64;100.00
25420;BME280;13354;48.174;11.566;2023-11-19T00:55:05;95720.63;;;5.76;100.00
25420;BME280;13354;48.174;11.566;2023-11-19T00:57:35;95712.59;;;5.78;100.00
25420;BME280;13354;48.174;11.566;2023-11-19T01:00:01;95701.59;;;5.82;100.00
25420;BME280;13354;48.174;11.566;2023-11-19T01:02:34;95701.94;;;5.79;100.00
25420;BME280;13354;48.174;11.566;2023-11-19T01:05:01;95696.53;;;5.89;100.00
25420;BME280;13354;48.174;11.566;2023-11-19T01:07:26;95698.50;;;5.87;100.00
25420;BME280;13354;48.174;11.566;2023-11-19T01:09:52;95699.31;;;5.88;100.00
25420;BME280;13354;48.174;11.566;2023-11-19T01:12:19;95695.19;;;5.85;100.00
25420;BME280;13354;48.174;11.566;2023-11-19T01:14:44;95689.28;;;5.91;100.00
25420;BME280;13354;48.174;11.566;2023-11-19T01:17:10;95683.06;;;5.92;100.00
25420;BME280;13354;48.174;11.566;2023-11-19T01:19:35;95688.69;;;5.97;100.00
25420;BME280;13354;48.174;11.566;2023-11-19T01:22:00;95686.56;;;6.01;100.00
25420;BME280;13354;48.174;11.566;2023-11-19T01:24:26;95686.38;;;6.02;100.00
25420;BME280;13354;48.174;11.566;2023-11-19T01:26:53;95674.91;;;6.12;100.00
25420;BME280;13354;48.174;11.566;2023-11-19T01:29:19;95675.84;;;6.11;100.00
25420;BME280;13354;48.174;11.566;2023-11-19T01:31:46;95674.88;;;6.20;100.00
25420;BME280;13354;48.174;11.566;2023-11-19T01:34:12;95673.25;;;6.19;100.00
25420;BME280;13354;48.174;11.566;2023-11-19T01:36:38;95671.28;;;6.21;100.00
25420;BME280;13354;48.174;11.566;2023-11-19T01:39:04;95669.13;;;6.24;100.00
25420;BME280;13354;48.174;11.566;2023-11-19T01:41:34;95668.50;;;6.22;100.00
25420;BME280;13354;48.174;11.566;2023-11-19T01:43:59;95662.06;;;6.25;100.00
25420;BME280;13354;48.174;11.566;2023-11-19T01:46:25;95659.91;;;6.45;100.00
25420;BME280;13354;48.174;11.566;2023-11-19T01:48:51;95659.09;;;6.36;100.00
25420;BME280;13354;48.174;11.566;2023-11-19T01:51:17;95656.13;;;6.39;100.00
25420;BME280;13354;48.174;11.566;2023-11-19T01:53:43;95654.00;;;6.43;100.00
25420;BME280;13354;48.174;11.566;2023-11-19T01:56:13;95650.53;;;6.42;100.00
25420;BME280;13354;48.174;11.566;2023-11-19T01:58:39;95648.22;;;6.47;100.00
25420;BME280;13354;48.174;11.566;2023-11-19T02:01:06;95637.38;;;6.50;100.00
25420;BME280;13354;48.174;11.566;2023-11-19T02:03:32;95637.72;;;6.47;100.00
25420;BME280;13354;48.174;11.566;2023-11-19T02:05:59;95633.06;;;6.66;100.00
25420;BME280;13354;48.174;11.566;2023-11-19T02:08:24;95633.53;;;6.77;100.00
25420;BME280;13354;48.174;11.566;2023-11-19T02:10:50;95632.38;;;6.80;100.00
25420;BME280;13354;48.174;11.566;2023-11-19T02:13:15;95628.41;;;6.84;100.00
25420;BME280;13354;48.174;11.566;2023-11-19T02:15:41;95615.44;;;6.83;100.00
25420;BME280;13354;48.174;11.566;2023-11-19T02:18:26;95607.97;;;6.94;100.00
25420;BME280;13354;48.174;11.566;2023-11-19T02:20:58;95608.44;;;6.98;100.00
25420;BME280;13354;48.174;11.566;2023-11-19T02:23:26;95601.72;;;6.95;100.00
25420;BME280;13354;48.174;11.566;2023-11-19T02:26:02;95596.09;;;6.98;100.00
25420;BME280;13354;48.174;11.566;2023-11-19T02:28:27;95589.00;;;7.07;100.00
25420;BME280;13354;48.174;11.566;2023-11-19T02:30:53;95592.13;;;7.11;100.00
25420;BME280;13354;48.174;11.566;2023-11-19T02:33:18;95581.59;;;7.11;100.00
25420;BME280;13354;48.174;11.566;2023-11-19T02:35:44;95575.81;;;7.15;100.00
25420;BME280;13354;48.174;11.566;2023-11-19T02:38:09;95574.81;;;7.16;100.00
25420;BME280;13354;48.174;11.566;2023-11-19T02:40:35;95572.50;;;7.13;100.00
25420;BME280;13354;48.174;11.566;2023-11-19T02:43:00;95570.06;;;7.12;100.00
25420;BME280;13354;48.174;11.566;2023-11-19T02:45:26;95573.97;;;7.16;100.00
25420;BME280;13354;48.174;11.566;2023-11-19T02:47:52;95564.94;;;7.18;100.00
25420;BME280;13354;48.174;11.566;2023-11-19T02:50:19;95561.63;;;7.16;100.00
25420;BME280;13354;48.174;11.566;2023-11-19T02:52:51;95558.94;;;7.24;100.00
25420;BME280;13354;48.174;11.566;2023-11-19T02:55:17;95552.31;;;7.37;100.00
25420;BME280;13354;48.174;11.566;2023-11-19T02:57:43;95547.13;;;7.43;100.00
25420;BME280;13354;48.174;11.566;2023-11-19T03:00:18;95539.22;;;7.43;100.00
25420;BME280;13354;48.174;11.566;2023-11-19T03:02:44;95541.41;;;7.63;100.00
25420;BME280;13354;48.174;11.566;2023-11-19T03:05:15;95539.53;;;7.71;100.00
25420;BME280;13354;48.174;11.566;2023-11-19T03:07:42;95532.75;;;7.77;100.00
25420;BME280;13354;48.174;11.566;2023-11-19T03:10:12;95539.63;;;7.78;100.00
25420;BME280;13354;48.174;11.566;2023-11-19T03:12:39;95527.75;;;7.82;100.00
25420;BME280;13354;48.174;11.566;2023-11-19T03:15:06;95523.97;;;7.77;100.00
25420;BME280;13354;48.174;11.566;2023-11-19T03:17:31;95517.56;;;7.79;100.00
25420;BME280;13354;48.174;11.566;2023-11-19T03:19:56;95525.00;;;7.75;100.00
25420;BME280;13354;48.174;11.566;2023-11-19T03:22:22;95519.72;;;7.75;100.00
25420;BME280;13354;48.174;11.566;2023-11-19T03:24:47;95526.94;;;7.82;100.00
25420;BME280;13354;48.174;11.566;2023-11-19T03:27:15;95523.13;;;7.84;100.00
25420;BME280;13354;48.174;11.566;2023-11-19T03:29:40;95513.19;;;7.86;100.00
25420;BME280;13354;48.174;11.566;2023-11-19T03:32:06;95516.69;;;8.02;100.00
25420;BME280;13354;48.174;11.566;2023-11-19T03:34:31;95521.50;;;7.98;100.00
25420;BME280;13354;48.174;11.566;2023-11-19T03:36:57;95514.16;;;8.08;100.00
25420;BME280;13354;48.174;11.566;2023-11-19T03:39:22;95525.69;;;8.07;100.00
25420;BME280;13354;48.174;11.566;2023-11-19T03:41:50;95524.91;;;8.21;100.00
25420;BME280;13354;48.174;11.566;2023-11-19T03:44:15;95526.88;;;8.19;100.00
25420;BME280;13354;48.174;11.566;2023-11-19T03:46:41;95526.66;;;8.44;100.00
25420;BME280;13354;48.174;11.566;2023-11-19T03:49:07;95533.34;;;8.32;100.00
25420;BME280;13354;48.174;11.566;2023-11-19T03:51:32;95530.84;;;8.38;100.00
25420;BME280;13354;48.174;11.566;2023-11-19T03:53:57;95528.06;;;8.32;100.00
25420;BME280;13354;48.174;11.566;2023-11-19T03:56:24;95527.63;;;8.43;100.00
25420;BME280;13354;48.174;11.566;2023-11-19T03:58:49;95530.22;;;8.51;100.00
25420;BME280;13354;48.174;11.566;2023-11-19T04:01:14;95517.03;;;8.51;100.00
25420;BME280;13354;48.174;11.566;2023-11-19T04:03:40;95520.56;;;8.58;100.00
25420;BME280;13354;48.174;11.566;2023-11-19T04:06:05;95518.84;;;8.65;100.00
25420;BME280;13354;48.174;11.566;2023-11-19T04:08:31;95521.00;;;8.77;100.00
25420;BME280;13354;48.174;11.566;2023-11-19T04:10:56;95519.69;;;8.73;100.00
25420;BME280;13354;48.174;11.566;2023-11-19T04:13:21;95526.28;;;8.77;100.00
25420;BME280;13354;48.174;11.566;2023-11-19T04:15:49;95526.09;;;8.78;100.00
25420;BME280;13354;48.174;11.566;2023-11-19T04:18:14;95522.78;;;8.91;100.00
25420;BME280;13354;48.174;11.566;2023-11-19T04:20:39;95527.31;;;8.97;100.00
25420;BME280;13354;48.174;11.566;2023-11-19T04:23:07;95530.69;;;8.91;100.00
25420;BME280;13354;48.174;11.566;2023-11-19T04:25:33;95529.56;;;9.15;100.00
25420;BME280;13354;48.174;11.566;2023-11-19T04:27:58;95526.66;;;9.10;100.00
25420;BME280;13354;48.174;11.566;2023-11-19T04:30:23;95528.91;;;9.13;100.00
25420;BME280;13354;48.174;11.566;2023-11-19T04:32:49;95531.09;;;9.09;100.00
25420;BME280;13354;48.174;11.566;2023-11-19T04:35:14;95522.56;;;9.07;100.00
25420;BME280;13354;48.174;11.566;2023-11-19T04:37:41;95520.81;;;9.14;100.00
25420;BME280;13354;48.174;11.566;2023-11-19T04:40:07;95522.91;;;9.19;100.00
25420;BME280;13354;48.174;11.566;2023-11-19T04:42:32;95525.38;;;9.21;100.00
25420;BME280;13354;48.174;11.566;2023-11-19T04:44:58;95530.00;;;9.18;100.00
25420;BME280;13354;48.174;11.566;2023-11-19T04:47:23;95533.22;;;9.14;100.00
25420;BME280;13354;48.174;11.566;2023-11-19T04:49:49;95532.41;;;9.13;100.00
25420;BME280;13354;48.174;11.566;2023-11-19T04:52:14;95522.91;;;9.19;100.00
25420;BME280;13354;48.174;11.566;2023-11-19T04:54:43;95536.47;;;9.16;100.00
25420;BME280;13354;48.174;11.566;2023-11-19T04:57:09;95536.28;;;9.17;100.00
25420;BME280;13354;48.174;11.566;2023-11-19T04:59:36;95528.78;;;9.36;100.00
25420;BME280;13354;48.174;11.566;2023-11-19T05:02:01;95536.69;;;9.36;100.00
25420;BME280;13354;48.174;11.566;2023-11-19T05:04:27;95538.69;;;9.34;100.00
25420;BME280;13354;48.174;11.566;2023-11-19T05:06:52;95536.88;;;9.34;100.00
25420;BME280;13354;48.174;11.566;2023-11-19T05:09:18;95540.66;;;9.47;100.00
25420;BME280;13354;48.174;11.566;2023-11-19T05:11:43;95550.88;;;9.35;100.00
25420;BME280;13354;48.174;11.566;2023-11-19T05:14:09;95543.47;;;9.45;100.00
25420;BME280;13354;48.174;11.566;2023-11-19T05:16:34;95538.28;;;9.52;100.00
25420;BME280;13354;48.174;11.566;2023-11-19T05:19:00;95542.91;;;9.50;100.00
25420;BME280;13354;48.174;11.566;2023-11-19T05:21:25;95558.41;;;9.53;100.00
25420;BME280;13354;48.174;11.566;2023-11-19T05:23:51;95553.88;;;9.47;100.00
25420;BME280;13354;48.174;11.566;2023-11-19T05:26:21;95563.44;;;9.48;100.00
25420;BME280;13354;48.174;11.566;2023-11-19T05:28:47;95558.09;;;9.41;100.00
25420;BME280;13354;48.174;11.566;2023-11-19T05:31:12;95566.75;;;9.35;100.00
25420;BME280;13354;48.174;11.566;2023-11-19T05:33:37;95574.38;;;9.44;100.00
25420;BME280;13354;48.174;11.566;2023-11-19T05:36:04;95565.88;;;9.49;100.00
25420;BME280;13354;48.174;11.566;2023-11-19T05:38:29;95557.06;;;9.42;100.00
25420;BME280;13354;48.174;11.566;2023-11-19T05:40:55;95563.25;;;9.49;100.00
25420;BME280;13354;48.174;11.566;2023-11-19T05:43:20;95563.38;;;9.41;100.00
25420;BME280;13354;48.174;11.566;2023-11-19T05:45:46;95562.41;;;9.49;100.00
25420;BME280;13354;48.174;11.566;2023-11-19T05:48:12;95555.75;;;9.53;100.00
25420;BME280;13354;48.174;11.566;2023-11-19T05:50:38;95562.44;;;9.70;100.00
25420;BME280;13354;48.174;11.566;2023-11-19T05:53:04;95563.75;;;9.59;100.00
25420;BME280;13354;48.174;11.566;2023-11-19T05:55:38;95564.50;;;9.53;100.00
25420;BME280;13354;48.174;11.566;2023-11-19T05:58:11;95555.91;;;9.66;100.00
25420;BME280;13354;48.174;11.566;2023-11-19T06:00:38;95563.69;;;9.53;100.00
25420;BME280;13354;48.174;11.566;2023-11-19T06:03:06;95550.66;;;9.51;100.00
25420;BME280;13354;48.174;11.566;2023-11-19T06:05:33;95560.22;;;9.52;100.00
25420;BME280;13354;48.174;11.566;2023-11-19T06:07:58;95550.03;;;9.49;100.00
25420;BME280;13354;48.174;11.566;2023-11-19T06:10:24;95559.72;;;9.63;100.00
25420;BME280;13354;48.174;11.566;2023-11-19T06:12:58;95566.91;;;9.70;100.00
25420;BME280;13354;48.174;11.566;2023-11-19T06:15:25;95577.91;;;9.52;100.00
25420;BME280;13354;48.174;11.566;2023-11-19T06:17:51;95576.22;;;9.44;100.00
25420;BME280;13354;48.174;11.566;2023-11-19T06:20:17;95571.94;;;9.43;100.00
25420;BME280;13354;48.174;11.566;2023-11-19T06:22:45;95555.38;;;9.56;100.00
25420;BME280;13354;48.174;11.566;2023-11-19T06:25:11;95566.44;;;9.44;100.00
25420;BME280;13354;48.174;11.566;2023-11-19T06:27:36;95544.19;;;9.54;100.00
25420;BME280;13354;48.174;11.566;2023-11-19T06:30:02;95555.81;;;9.59;100.00
25420;BME280;13354;48.174;11.566;2023-11-19T06:32:28;95557.66;;;9.59;100.00
25420;BME280;13354;48.174;11.566;2023-11-19T06:34:54;95558.72;;;9.64;100.00
25420;BME280;13354;48.174;11.566;2023-11-19T06:37:19;95556.72;;;9.66;100.00
25420;BME280;13354;48.174;11.566;2023-11-19T06:39:44;95562.66;;;9.75;100.00
25420;BME280;13354;48.174;11.566;2023-11-19T06:42:10;95552.94;;;9.76;100.00
25420;BME280;13354;48.174;11.566;2023-11-19T06:44:36;95558.41;;;9.74;100.00
25420;BME280;13354;48.174;11.566;2023-11-19T06:47:01;95554.94;;;9.74;100.00
25420;BME280;13354;48.174;11.566;2023-11-19T06:49:27;95557.75;;;9.93;100.00
25420;BME280;13354;48.174;11.566;2023-11-19T06:51:52;95560.09;;;9.82;100.00
25420;BME280;13354;48.174;11.566;2023-11-19T06:54:17;95572.38;;;9.89;100.00
25420;BME280;13354;48.174;11.566;2023-11-19T06:56:43;95564.63;;;9.88;100.00
25420;BME280;13354;48.174;11.566;2023-11-19T06:59:08;95561.84;;;9.96;100.00
25420;BME280;13354;48.174;11.566;2023-11-19T07:01:35;95572.69;;;9.80;100.00
25420;BME280;13354;48.174;11.566;2023-11-19T07:04:01;95568.84;;;9.82;100.00
25420;BME280;13354;48.174;11.566;2023-11-19T07:06:33;95571.31;;;10.12;100.00
25420;BME280;13354;48.174;11.566;2023-11-19T07:08:58;95577.84;;;10.09;100.00
25420;BME280;13354;48.174;11.566;2023-11-19T07:11:23;95578.66;;;10.10;100.00
25420;BME280;13354;48.174;11.566;2023-11-19T07:13:49;95571.31;;;10.12;100.00
25420;BME280;13354;48.174;11.566;2023-11-19T07:16:15;95571.53;;;10.10;100.00
25420;BME280;13354;48.174;11.566;2023-11-19T07:18:40;95584.19;;;10.15;100.00
25420;BME280;13354;48.174;11.566;2023-11-19T07:21:08;95584.31;;;10.28;100.00
25420;BME280;13354;48.174;11.566;2023-11-19T07:23:35;95574.03;;;10.40;100.00
25420;BME280;13354;48.174;11.566;2023-11-19T07:26:01;95585.13;;;10.29;100.00
25420;BME280;13354;48.174;11.566;2023-11-19T07:28:26;95583.00;;;10.18;100.00
25420;BME280;13354;48.174;11.566;2023-11-19T07:30:53;95582.59;;;10.21;100.00
25420;BME280;13354;48.174;11.566;2023-11-19T07:33:21;95589.16;;;10.25;100.00
25420;BME280;13354;48.174;11.566;2023-11-19T07:35:46;95587.69;;;10.22;100.00
25420;BME280;13354;48.174;11.566;2023-11-19T07:38:11;95596.91;;;10.26;100.00
25420;BME280;13354;48.174;11.566;2023-11-19T07:40:37;95600.94;;;10.22;100.00
25420;BME280;13354;48.174;11.566;2023-11-19T07:43:02;95608.31;;;10.27;100.00
25420;BME280;13354;48.174;11.566;2023-11-19T07:45:27;95610.25;;;10.18;100.00
25420;BME280;13354;48.174;11.566;2023-11-19T07:47:53;95614.31;;;10.35;100.00
25420;BME280;13354;48.174;11.566;2023-11-19T07:50:19;95614.31;;;10.35;100.00
25420;BME280;13354;48.174;11.566;2023-11-19T07:52:45;95617.72;;;10.57;100.00
25420;BME280;13354;48.174;11.566;2023-11-19T07:55:10;95614.72;;;10.67;100.00
25420;BME280;13354;48.174;11.566;2023-11-19T07:57:37;95615.06;;;10.57;100.00
25420;BME280;13354;48.174;11.566;2023-11-19T08:00:03;95616.38;;;10.75;100.00
25420;BME280;13354;48.174;11.566;2023-11-19T08:02:28;95615.50;;;10.61;100.00
25420;BME280;13354;48.174;11.566;2023-11-19T08:04:54;95616.06;;;10.56;100.00
25420;BME280;13354;48.174;11.566;2023-11-19T08:07:20;95617.13;;;10.62;100.00
25420;BME280;13354;48.174;11.566;2023-11-19T08:09:47;95617.19;;;10.69;100.00
25420;BME280;13354;48.174;11.566;2023-11-19T08:12:13;95615.69;;;10.59;100.00
25420;BME280;13354;48.174;11.566;2023-11-19T08:14:41;95627.00;;;10.47;100.00
25420;BME280;13354;48.174;11.566;2023-11-19T08:17:06;95630.31;;;10.83;100.00
25420;BME280;13354;48.174;11.566;2023-11-19T08:19:31;95621.94;;;10.80;100.00
25420;BME280;13354;48.174;11.566;2023-11-19T08:21:57;95623.41;;;10.89;100.00
25420;BME280;13354;48.174;11.566;2023-11-19T08:24:22;95611.66;;;10.98;100.00
25420;BME280;13354;48.174;11.566;2023-11-19T08:26:48;95622.53;;;10.82;100.00
25420;BME280;13354;48.174;11.566;2023-11-19T08:29:13;95619.38;;;11.00;100.00
25420;BME280;13354;48.174;11.566;2023-11-19T08:31:39;95618.41;;;11.07;100.00
25420;BME280;13354;48.174;11.566;2023-11-19T08:34:04;95617.38;;;11.02;100.00
25420;BME280;13354;48.174;11.566;2023-11-19T08:36:34;95623.78;;;10.79;100.00
25420;BME280;13354;48.174;11.566;2023-11-19T08:38:59;95628.97;;;11.01;100.00
25420;BME280;13354;48.174;11.566;2023-11-19T08:41:25;95626.13;;;11.02;100.00
25420;BME280;13354;48.174;11.566;2023-11-19T08:43:50;95621.53;;;11.18;100.00
25420;BME280;13354;48.174;11.566;2023-11-19T08:46:17;95623.66;;;11.01;100.00
25420;BME280;13354;48.174;11.566;2023-11-19T08:48:42;95628.75;;;10.96;100.00
25420;BME280;13354;48.174;11.566;2023-11-19T08:51:07;95629.81;;;11.01;100.00
25420;BME280;13354;48.174;11.566;2023-11-19T08:53:33;95630.63;;;11.02;100.00
25420;BME280;13354;48.174;11.566;2023-11-19T08:55:59;95633.44;;;11.00;100.00
25420;BME280;13354;48.174;11.566;2023-11-19T08:58:25;95625.63;;;11.20;100.00
25420;BME280;13354;48.174;11.566;2023-11-19T09:00:51;95624.13;;;11.11;100.00
25420;BME280;13354;48.174;11.566;2023-11-19T09:03:16;95618.47;;;11.21;100.00
25420;BME280;13354;48.174;11.566;2023-11-19T09:05:41;95615.84;;;11.21;100.00
25420;BME280;13354;48.174;11.566;2023-11-19T09:08:06;95624.81;;;11.26;100.00
25420;BME280;13354;48.174;11.566;2023-11-19T09:10:32;95622.16;;;11.26;100.00
25420;BME280;13354;48.174;11.566;2023-11-19T09:12:57;95611.97;;;11.30;100.00
25420;BME280;13354;48.174;11.566;2023-11-19T09:15:23;95607.75;;;11.35;100.00
25420;BME280;13354;48.174;11.566;2023-11-19T09:17:49;95609.94;;;11.25;100.00
25420;BME280;13354;48.174;11.566;2023-11-19T09:20:14;95626.31;;;11.42;100.00
25420;BME280;13354;48.174;11.566;2023-11-19T09:22:40;95635.03;;;11.29;100.00
25420;BME280;13354;48.174;11.566;2023-11-19T09:25:06;95632.81;;;11.40;100.00
25420;BME280;13354;48.174;11.566;2023-11-19T09:27:31;95644.72;;;11.57;100.00
25420;BME280;13354;48.174;11.566;2023-11-19T09:29:57;95639.81;;;11.54;100.00
25420;BME280;13354;48.174;11.566;2023-11-19T09:32:24;95641.69;;;11.60;100.00
25420;BME280;13354;48.174;11.566;2023-11-19T09:34:55;95644.50;;;11.45;100.00
25420;BME280;13354;48.174;11.566;2023-11-19T09:37:21;95645.72;;;11.49;100.00
25420;BME280;13354;48.174;11.566;2023-11-19T09:39:46;95644.88;;;11.42;100.00
25420;BME280;13354;48.174;11.566;2023-11-19T09:42:12;95649.81;;;11.58;100.00
25420;BME280;13354;48.174;11.566;2023-11-19T09:44:38;95654.88;;;11.47;100.00
25420;BME280;13354;48.174;11.566;2023-11-19T09:47:05;95644.94;;;11.62;100.00
25420;BME280;13354;48.174;11.566;2023-11-19T09:49:32;95641.97;;;11.37;100.00
25420;BME280;13354;48.174;11.566;2023-11-19T09:51:58;95642.63;;;11.39;100.00
25420;BME280;13354;48.174;11.566;2023-11-19T09:54:24;95626.88;;;11.37;100.00
25420;BME280;13354;48.174;11.566;2023-11-19T09:56:49;95628.59;;;11.45;100.00
25420;BME280;13354;48.174;11.566;2023-11-19T09:59:15;95631.44;;;11.50;100.00
25420;BME280;13354;48.174;11.566;2023-11-19T10:01:42;95621.72;;;11.64;100.00
25420;BME280;13354;48.174;11.566;2023-11-19T10:04:09;95614.34;;;11.66;100.00
25420;BME280;13354;48.174;11.566;2023-11-19T10:06:37;95603.97;;;11.71;100.00
25420;BME280;13354;48.174;11.566;2023-11-19T10:09:02;95608.25;;;11.72;100.00
25420;BME280;13354;48.174;11.566;2023-11-19T10:11:30;95602.59;;;11.95;100.00
25420;BME280;13354;48.174;11.566;2023-11-19T10:13:56;95603.22;;;12.04;100.00
25420;BME280;13354;48.174;11.566;2023-11-19T10:16:28;95604.88;;;12.12;100.00
25420;BME280;13354;48.174;11.566;2023-11-19T10:18:55;95587.13;;;12.12;100.00
25420;BME280;13354;48.174;11.566;2023-11-19T10:21:21;95598.97;;;12.09;100.00
25420;BME280;13354;48.174;11.566;2023-11-19T10:23:56;95599.16;;;12.35;100.00
25420;BME280;13354;48.174;11.566;2023-11-19T10:26:24;95597.13;;;12.43;100.00
25420;BME280;13354;48.174;11.566;2023-11-19T10:28:50;95592.44;;;12.52;100.00
25420;BME280;13354;48.174;11.566;2023-11-19T10:31:16;95588.13;;;12.57;100.00
25420;BME280;13354;48.174;11.566;2023-11-19T10:33:43;95591.34;;;12.73;100.00
25420;BME280;13354;48.174;11.566;2023-11-19T10:36:11;95586.66;;;12.81;100.00
25420;BME280;13354;48.174;11.566;2023-11-19T10:38:40;95577.19;;;12.92;99.07
25420;BME280;13354;48.174;11.566;2023-11-19T10:41:26;95588.13;;;12.71;99.75
25420;BME280;13354;48.174;11.566;2023-11-19T10:43:52;95573.97;;;12.84;98.35
25420;BME280;13354;48.174;11.566;2023-11-19T10:46:18;95579.25;;;12.97;99.43
25420;BME280;13354;48.174;11.566;2023-11-19T10:48:48;95567.50;;;13.18;98.64
25420;BME280;13354;48.174;11.566;2023-11-19T10:51:18;95576.03;;;13.40;95.67
25420;BME280;13354;48.174;11.566;2023-11-19T10:53:49;95576.53;;;13.23;95.70
25420;BME280;13354;48.174;11.566;2023-11-19T10:56:16;95568.56;;;13.23;94.97
25420;BME280;13354;48.174;11.566;2023-11-19T10:58:44;95569.34;;;13.31;93.81
25420;BME280;13354;48.174;11.566;2023-11-19T11:01:17;95569.53;;;13.29;94.56
25420;BME280;13354;48.174;11.566;2023-11-19T11:03:44;95568.75;;;13.22;94.95
25420;BME280;13354;48.174;11.566;2023-11-19T11:06:12;95571.00;;;13.25;94.62
25420;BME280;13354;48.174;11.566;2023-11-19T11:08:39;95566.50;;;13.25;94.73
25420;BME280;13354;48.174;11.566;2023-11-19T11:11:05;95554.63;;;13.28;94.72
25420;BME280;13354;48.174;11.566;2023-11-19T11:13:31;95553.41;;;13.62;93.01
25420;BME280;13354;48.174;11.566;2023-11-19T11:15:57;95555.00;;;13.38;93.11
25420;BME280;13354;48.174;11.566;2023-11-19T11:18:23;95555.13;;;13.50;92.68
25420;BME280;13354;48.174;11.566;2023-11-19T11:20:52;95561.19;;;13.64;90.49
25420;BME280;13354;48.174;11.566;2023-11-19T11:23:42;95562.16;;;13.38;91.23
25420;BME280;13354;48.174;11.566;2023-11-19T11:29:03;95550.44;;;13.52;91.14
25420;BME280;13354;48.174;11.566;2023-11-19T11:31:48;95537.84;;;13.66;91.18
25420;BME280;13354;48.174;11.566;2023-11-19T11:39:30;95547.66;;;14.29;86.78
25420;BME280;13354;48.174;11.566;2023-11-19T11:45:06;95524.94;;;14.51;84.26
25420;BME280;13354;48.174;11.566;2023-11-19T11:50:10;95521.00;;;14.90;82.02
25420;BME280;13354;48.174;11.566;2023-11-19T11:58:07;95539.16;;;15.49;77.18
25420;BME280;13354;48.174;11.566;2023-11-19T12:00:38;95539.47;;;15.40;77.31
25420;BME280;13354;48.174;11.566;2023-11-19T12:03:06;95530.28;;;14.88;79.05
25420;BME280;13354;48.174;11.566;2023-11-19T12:05:32;95528.72;;;14.98;78.80
25420;BME280;13354;48.174;11.566;2023-11-19T12:08:06;95523.28;;;15.23;77.72
25420;BME280;13354;48.174;11.566;2023-11-19T12:10:46;95512.66;;;15.35;77.45
25420;BME280;13354;48.174;11.566;2023-11-19T12:13:16;95516.19;;;15.48;75.42
25420;BME280;13354;48.174;11.566;2023-11-19T12:18:29;95530.50;;;15.83;74.51
25420;BME280;13354;48.174;11.566;2023-11-19T12:20:56;95530.88;;;15.99;73.24
25420;BME280;13354;48.174;11.566;2023-11-19T12:23:22;95519.16;;;16.11;72.50
25420;BME280;13354;48.174;11.566;2023-11-19T12:25:48;95534.88;;;16.31;71.98
25420;BME280;13354;48.174;11.566;2023-11-19T12:28:16;95512.66;;;16.19;70.62
25420;BME280;13354;48.174;11.566;2023-11-19T12:30:43;95519.88;;;16.30;70.92
25420;BME280;13354;48.174;11.566;2023-11-19T12:33:09;95503.06;;;16.53;70.58
25420;BME280;13354;48.174;11.566;2023-11-19T12:35:42;95505.72;;;16.77;69.06
25420;BME280;13354;48.174;11.566;2023-11-19T12:38:17;95499.56;;;16.41;68.72
25420;BME280;13354;48.174;11.566;2023-11-19T12:40:43;95499.00;;;16.39;68.95
25420;BME280;13354;48.174;11.566;2023-11-19T12:43:08;95495.16;;;16.35;68.81
25420;BME280;13354;48.174;11.566;2023-11-19T12:45:36;95491.78;;;16.51;68.68
25420;BME280;13354;48.174;11.566;2023-11-19T12:48:08;95484.09;;;16.66;67.96
25420;BME280;13354;48.174;11.566;2023-11-19T12:50:51;95481.78;;;16.47;68.13
25420;BME280;13354;48.174;11.566;2023-11-19T12:53:20;95490.25;;;15.97;69.62
25420;BME280;13354;48.174;11.566;2023-11-19T12:55:46;95483.75;;;15.62;70.81
25420;BME280;13354;48.174;11.566;2023-11-19T12:58:32;95483.72;;;15.69;70.50
25420;BME280;13354;48.174;11.566;2023-11-19T13:01:07;95502.81;;;15.36;71.94
25420;BME280;13354;48.174;11.566;2023-11-19T13:03:36;95483.75;;;15.51;71.93
25420;BME280;13354;48.174;11.566;2023-11-19T13:06:07;95485.13;;;15.53;72.17
25420;BME280;13354;48.174;11.566;2023-11-19T13:08:40;95471.22;;;15.63;70.74